Time;durP1;ratioP1;P1;durP2;ratioP2;P2;SDS_P1;SDS_P2;PMS_P1;PMS_P2;Temp;Humidity;BMP_temperature;BMP_pressure;BME280_temperature;BME280_humidity;BME280_pressure;Samples;Min_cycle;Max_cycle;Signal;HPM_P1;HPM_P2
2022/08/30 00:01:04;;;;;;;36.92;5.90;;;;;;;22.12;51.48;100735.63;5042389;28;20052;-87
2022/08/30 00:03:45;;;;;;;19.38;5.25;;;;;;;22.07;51.29;100727.28;5031130;28;20049;-87
2022/08/30 00:06:13;;;;;;;20.42;5.00;;;;;;;22.05;51.25;100732.16;5044845;28;20064;-88
2022/08/30 00:08:39;;;;;;;27.20;5.28;;;;;;;22.04;50.61;100732.41;5029825;28;20037;-86
2022/08/30 00:11:08;;;;;;;32.03;5.15;;;;;;;21.87;50.43;100705.72;4999679;28;20042;-86
2022/08/30 00:13:37;;;;;;;27.50;5.13;;;;;;;21.87;50.29;100716.66;5037694;28;20501;-87
2022/08/30 00:16:05;;;;;;;30.38;4.75;;;;;;;21.95;49.93;100740.09;5046888;28;20075;-87
2022/08/30 00:18:34;;;;;;;24.38;5.18;;;;;;;21.67;49.78;100689.59;5022760;28;20756;-87
2022/08/30 00:21:00;;;;;;;28.45;4.80;;;;;;;21.77;49.79;100705.44;5012948;28;20041;-87
2022/08/30 00:23:25;;;;;;;22.42;4.78;;;;;;;21.70;49.90;100708.28;5026922;28;20051;-85
2022/08/30 00:25:51;;;;;;;26.58;4.68;;;;;;;21.61;50.33;100706.09;5030187;28;20469;-86
2022/08/30 00:28:17;;;;;;;24.23;4.95;;;;;;;21.75;50.39;100723.16;5024238;28;20502;-87
2022/08/30 00:30:44;;;;;;;30.83;5.30;;;;;;;21.70;50.17;100715.63;4991671;28;20095;-87
2022/08/30 00:33:11;;;;;;;26.55;4.53;;;;;;;21.62;50.44;100694.94;5028733;28;20049;-86
2022/08/30 00:35:42;;;;;;;24.60;5.03;;;;;;;21.63;50.90;100699.34;5025427;28;21710;-88
2022/08/30 00:38:08;;;;;;;24.10;4.75;;;;;;;21.66;50.96;100714.47;5027214;28;20068;-87
2022/08/30 00:40:34;;;;;;;21.23;4.28;;;;;;;21.65;51.56;100719.06;5014381;28;20041;-86
2022/08/30 00:43:00;;;;;;;23.67;4.65;;;;;;;21.48;51.44;100693.44;5027426;28;20094;-89
2022/08/30 00:45:31;;;;;;;30.27;5.22;;;;;;;21.63;51.26;100720.38;5026199;28;20046;-87
2022/08/30 00:47:59;;;;;;;32.92;4.65;;;;;;;21.66;51.78;100728.97;5021339;28;20044;-87
2022/08/30 00:50:27;;;;;;;21.80;4.90;;;;;;;21.50;51.95;100702.25;5026370;28;20052;-87
2022/08/30 00:52:56;;;;;;;25.95;5.15;;;;;;;21.52;52.37;100708.34;5016337;28;20041;-87
2022/08/30 00:55:23;;;;;;;24.33;4.95;;;;;;;21.46;52.53;100704.63;5026494;28;20084;-87
2022/08/30 00:57:50;;;;;;;18.05;5.07;;;;;;;21.40;53.88;100693.75;5008074;28;20572;-88
2022/08/30 01:00:16;;;;;;;26.30;6.05;;;;;;;21.58;55.21;100736.66;5033337;28;20053;-87
2022/08/30 01:02:42;;;;;;;24.08;5.57;;;;;;;21.43;55.69;100726.97;5036221;28;20070;-87
2022/08/30 01:05:22;;;;;;;24.08;6.03;;;;;;;21.29;58.09;100712.59;5011594;28;20083;-87
2022/08/30 01:07:49;;;;;;;26.35;6.47;;;;;;;21.37;58.09;100718.81;5035669;28;20111;-88
2022/08/30 01:10:17;;;;;;;30.63;6.60;;;;;;;21.34;59.24;100711.91;5000099;28;20076;-85
2022/08/30 01:12:43;;;;;;;23.63;6.20;;;;;;;21.35;60.61;100729.16;5019342;28;20440;-85
2022/08/30 01:15:13;;;;;;;28.20;7.03;;;;;;;21.28;61.52;100721.03;5050002;28;20531;-86
2022/08/30 01:17:40;;;;;;;24.85;6.90;;;;;;;21.33;61.06;100720.34;5031675;28;20047;-87
2022/08/30 01:20:11;;;;;;;21.80;6.82;;;;;;;21.32;61.55;100722.25;5009384;28;20106;-86
2022/08/30 01:23:09;;;;;;;22.13;6.65;;;;;;;21.41;62.44;100740.03;5009277;28;20128;-87
2022/08/30 01:25:35;;;;;;;23.33;6.53;;;;;;;21.20;62.59;100716.72;5012786;28;20040;-87
2022/08/30 01:28:05;;;;;;;23.38;6.72;;;;;;;21.22;64.90;100720.06;5013713;28;20129;-86
2022/08/30 01:30:37;;;;;;;19.98;6.88;;;;;;;21.18;66.03;100731.69;5015286;28;20114;-86
2022/08/30 01:33:07;;;;;;;20.80;7.07;;;;;;;20.91;66.26;100695.63;5028907;28;20041;-87
2022/08/30 01:35:55;;;;;;;31.38;7.10;;;;;;;21.08;65.75;100724.84;5027283;28;20052;-87
2022/08/30 01:38:27;;;;;;;23.73;6.88;;;;;;;20.93;65.94;100707.16;5026469;28;20125;-87
2022/08/30 01:41:00;;;;;;;18.83;6.45;;;;;;;20.87;65.14;100701.56;5030380;28;20103;-88
2022/08/30 01:43:27;;;;;;;22.77;6.28;;;;;;;21.14;63.74;100731.31;5023260;28;20523;-88
2022/08/30 01:45:56;;;;;;;21.25;6.65;;;;;;;21.03;62.98;100710.22;5041766;28;20037;-87
2022/08/30 01:48:22;;;;;;;21.30;7.07;;;;;;;20.97;63.83;100716.59;5025468;28;20123;-87
2022/08/30 01:50:47;;;;;;;27.05;6.78;;;;;;;20.83;63.92;100694.03;5041555;28;20746;-88
2022/08/30 01:53:20;;;;;;;26.23;7.05;;;;;;;21.02;63.89;100725.75;5030718;28;20481;-87
2022/08/30 01:55:46;;;;;;;26.38;6.75;;;;;;;21.05;64.33;100740.88;5030742;28;20053;-87
2022/08/30 01:58:12;;;;;;;23.02;6.97;;;;;;;20.98;64.45;100737.41;5023467;28;20033;-87
2022/08/30 02:00:44;;;;;;;28.33;7.15;;;;;;;20.95;64.57;100740.56;5009489;28;20045;-89
2022/08/30 02:03:10;;;;;;;31.15;6.90;;;;;;;20.89;64.69;100719.63;5013306;28;20048;-87
2022/08/30 02:05:36;;;;;;;26.17;6.80;;;;;;;20.86;63.97;100721.75;5011723;28;20051;-87
2022/08/30 02:08:04;;;;;;;22.10;7.20;;;;;;;20.74;63.79;100704.44;5008544;28;20050;-87
2022/08/30 02:10:30;;;;;;;33.55;7.05;;;;;;;20.83;63.87;100726.81;5045007;28;20047;-87
2022/08/30 02:12:56;;;;;;;24.10;6.68;;;;;;;20.89;63.89;100738.75;5024885;28;20041;-86
2022/08/30 02:15:23;;;;;;;28.17;6.82;;;;;;;20.66;64.25;100711.03;5048925;28;20060;-86
2022/08/30 02:17:50;;;;;;;30.75;7.70;;;;;;;20.76;64.32;100721.44;5026462;28;20091;-87
2022/08/30 02:20:16;;;;;;;21.27;6.90;;;;;;;20.66;64.22;100718.41;5019301;28;20047;-85
2022/08/30 02:22:45;;;;;;;27.60;6.85;;;;;;;20.74;64.02;100728.19;5064737;28;20405;-86
2022/08/30 02:25:13;;;;;;;26.27;6.93;;;;;;;20.55;64.32;100719.09;5026720;28;20516;-86
2022/08/30 02:27:39;;;;;;;28.10;7.43;;;;;;;20.55;64.47;100738.22;5012994;28;20041;-86
2022/08/30 02:30:09;;;;;;;36.25;7.55;;;;;;;20.41;64.51;100738.34;5051196;28;20098;-84
2022/08/30 02:32:35;;;;;;;24.08;7.18;;;;;;;20.42;64.32;100714.63;5034932;28;20102;-86
2022/08/30 02:35:05;;;;;;;24.08;6.40;;;;;;;20.56;64.29;100738.03;5025788;28;20040;-86
2022/08/30 02:37:31;;;;;;;30.90;7.07;;;;;;;20.56;63.94;100735.31;4999368;28;21421;-85
2022/08/30 02:40:00;;;;;;;27.05;6.80;;;;;;;20.46;64.12;100732.22;5045181;28;20071;-86
2022/08/30 02:42:25;;;;;;;29.42;7.90;;;;;;;20.33;63.58;100705.03;5012046;28;20098;-87
2022/08/30 02:44:51;;;;;;;22.92;7.10;;;;;;;20.25;63.59;100719.78;5046678;28;20037;-87
2022/08/30 02:47:17;;;;;;;28.10;7.43;;;;;;;20.43;63.27;100728.03;5015481;28;20418;-88
2022/08/30 02:49:45;;;;;;;25.23;6.60;;;;;;;20.40;63.31;100722.19;5050519;28;20417;-86
2022/08/30 02:52:11;;;;;;;20.48;7.18;;;;;;;20.56;63.03;100748.13;5032472;28;20090;-86
2022/08/30 02:54:44;;;;;;;24.65;7.20;;;;;;;20.33;63.17;100727.72;5019395;28;20378;-86
2022/08/30 02:57:12;;;;;;;27.85;7.13;;;;;;;20.52;62.84;100760.53;5028220;28;20093;-86
2022/08/30 02:59:42;;;;;;;29.02;7.15;;;;;;;20.50;62.78;100760.75;5022534;28;20091;-86
2022/08/30 03:02:10;;;;;;;28.17;6.82;;;;;;;20.34;62.65;100737.56;5029160;28;20045;-87
2022/08/30 03:04:37;;;;;;;32.90;7.35;;;;;;;20.18;62.65;100730.78;5046320;28;20480;-87
2022/08/30 03:07:07;;;;;;;25.50;7.15;;;;;;;20.18;62.36;100717.16;5014595;28;21908;-87
2022/08/30 03:09:38;;;;;;;23.77;7.03;;;;;;;20.20;62.02;100717.72;5005010;28;20063;-86
2022/08/30 03:12:06;;;;;;;27.38;7.47;;;;;;;20.29;61.88;100726.50;5027072;28;20481;-86
2022/08/30 03:14:35;;;;;;;22.48;7.28;;;;;;;20.51;61.26;100756.97;5006163;28;20464;-87
2022/08/30 03:17:10;;;;;;;23.88;6.70;;;;;;;20.50;61.13;100752.56;5025433;28;20036;-87
2022/08/30 03:19:36;;;;;;;29.45;7.22;;;;;;;20.38;60.98;100735.25;5024928;28;20041;-86
2022/08/30 03:22:13;;;;;;;34.50;7.38;;;;;;;20.31;61.01;100735.28;5026928;28;20041;-87
2022/08/30 03:24:41;;;;;;;25.10;7.25;;;;;;;20.39;61.33;100759.59;5036635;28;20354;-88
2022/08/30 03:27:07;;;;;;;28.50;7.47;;;;;;;20.37;60.93;100745.34;5048424;28;20041;-88
2022/08/30 03:29:35;;;;;;;28.60;7.32;;;;;;;20.51;60.52;100772.50;5019074;28;20041;-88
2022/08/30 03:32:00;;;;;;;26.05;7.10;;;;;;;20.28;60.49;100751.31;5041804;28;20037;-89
2022/08/30 03:34:29;;;;;;;33.28;7.28;;;;;;;20.34;60.70;100778.53;5004727;28;20127;-87
2022/08/30 03:37:00;;;;;;;28.65;7.07;;;;;;;20.44;60.17;100783.50;5022271;28;20099;-87
2022/08/30 03:39:28;;;;;;;26.63;6.72;;;;;;;20.35;59.95;100752.06;5013859;28;20225;-87
2022/08/30 03:41:53;;;;;;;28.85;7.80;;;;;;;20.44;59.11;100761.66;5030534;28;20042;-87
2022/08/30 03:44:20;;;;;;;28.40;7.10;;;;;;;20.27;59.19;100755.06;5064714;28;20044;-88
2022/08/30 03:46:46;;;;;;;35.60;7.03;;;;;;;20.53;59.19;100784.03;5063817;28;20048;-86
2022/08/30 03:49:12;;;;;;;40.53;14.13;;;;;;;20.42;59.55;100797.38;5040536;28;20108;-87
2022/08/30 03:51:38;;;;;;;37.20;9.40;;;;;;;20.29;59.59;100775.63;5027957;28;20053;-88
2022/08/30 03:54:05;;;;;;;44.05;7.72;;;;;;;20.27;59.00;100766.81;5024159;28;20033;-88
2022/08/30 03:56:30;;;;;;;31.95;8.23;;;;;;;20.24;58.98;100770.00;5010270;28;20041;-87
2022/08/30 03:58:56;;;;;;;39.95;9.27;;;;;;;20.39;59.02;100781.44;5016535;28;20052;-87
2022/08/30 04:01:23;;;;;;;46.70;10.65;;;;;;;20.30;59.38;100777.31;5047298;28;20183;-89
2022/08/30 04:03:48;;;;;;;37.75;12.55;;;;;;;20.26;59.15;100778.81;5040562;28;20111;-88
2022/08/30 04:06:16;;;;;;;47.65;13.93;;;;;;;20.37;59.63;100799.06;5040127;28;20047;-88
2022/08/30 04:08:44;;;;;;;54.05;15.90;;;;;;;20.25;60.08;100763.47;5038199;28;20036;-86
2022/08/30 04:11:11;;;;;;;58.88;16.42;;;;;;;20.32;60.25;100783.41;5030140;28;20033;-87
2022/08/30 04:13:37;;;;;;;51.17;16.25;;;;;;;20.30;60.33;100784.66;5016346;28;20053;-88
2022/08/30 04:16:02;;;;;;;55.20;16.25;;;;;;;20.52;60.08;100785.94;4993905;28;20128;-88
2022/08/30 04:18:34;;;;;;;51.10;17.20;;;;;;;20.48;59.73;100790.16;5050045;28;20040;-88
2022/08/30 04:21:00;;;;;;;58.22;17.95;;;;;;;20.36;59.84;100776.41;5031481;28;20045;-87
2022/08/30 04:23:30;;;;;;;56.90;16.27;;;;;;;20.43;59.69;100781.81;5046742;28;20041;-87
2022/08/30 04:25:55;;;;;;;47.97;15.45;;;;;;;20.61;59.21;100800.19;5041766;28;20145;-87
2022/08/30 04:28:22;;;;;;;59.42;15.20;;;;;;;20.67;59.44;100810.19;5024218;28;20068;-88
2022/08/30 04:30:48;;;;;;;47.00;14.88;;;;;;;20.57;59.18;100785.31;5029938;28;20029;-88
2022/08/30 04:33:14;;;;;;;55.40;16.00;;;;;;;20.63;59.17;100804.38;5035629;28;20182;-87
2022/08/30 04:35:43;;;;;;;50.28;17.40;;;;;;;20.75;58.76;100801.72;5035441;28;20126;-89
2022/08/30 04:38:10;;;;;;;50.50;18.70;;;;;;;20.95;57.94;100808.88;5034227;28;20037;-88
2022/08/30 04:40:38;;;;;;;67.32;18.63;;;;;;;20.96;57.99;100813.31;5035842;28;20033;-88
2022/08/30 04:43:03;;;;;;;55.22;19.00;;;;;;;21.04;57.72;100822.03;5031190;28;20095;-87
2022/08/30 04:45:29;;;;;;;53.92;19.25;;;;;;;20.98;57.44;100794.78;5026915;28;20049;-86
2022/08/30 04:48:01;;;;;;;66.53;17.25;;;;;;;21.20;57.30;100809.66;5022463;28;20037;-89
2022/08/30 04:50:30;;;;;;;52.00;16.05;;;;;;;21.22;56.99;100791.13;5046835;28;20136;-86
2022/08/30 04:52:57;;;;;;;45.20;15.63;;;;;;;21.25;56.77;100785.22;5022247;28;20068;-87
2022/08/30 04:55:28;;;;;;;62.45;17.77;;;;;;;21.45;56.44;100800.59;5046619;28;20600;-88
2022/08/30 04:57:53;;;;;;;50.45;16.95;;;;;;;21.75;55.60;100821.66;5023701;28;20033;-87
2022/08/30 05:00:19;;;;;;;57.63;15.98;;;;;;;21.64;54.76;100788.53;5047976;28;20064;-88
2022/08/30 05:02:46;;;;;;;49.55;16.52;;;;;;;21.97;54.27;100822.81;5032772;28;20040;-85
2022/08/30 05:08:03;;;;;;;56.35;15.90;;;;;;;22.09;54.22;100823.69;5020722;28;20043;-88
2022/08/30 05:10:29;;;;;;;56.63;14.05;;;;;;;22.15;52.43;100811.00;5028236;28;20045;-87
2022/08/30 05:13:02;;;;;;;40.05;13.52;;;;;;;22.36;51.28;100806.91;5050440;28;20051;-87
2022/08/30 05:15:29;;;;;;;44.80;13.27;;;;;;;22.49;50.49;100801.19;5048361;28;20057;-86
2022/08/30 05:17:55;;;;;;;45.05;14.90;;;;;;;22.97;49.82;100846.75;5053694;28;20493;-87
2022/08/30 05:20:23;;;;;;;45.28;15.23;;;;;;;23.14;49.51;100840.56;5050542;28;20041;-86
2022/08/30 05:22:49;;;;;;;52.95;14.80;;;;;;;23.28;49.10;100816.47;5045706;28;20061;-87
2022/08/30 05:25:24;;;;;;;51.97;14.90;;;;;;;23.63;48.14;100838.31;5056049;28;20138;-87
2022/08/30 05:27:51;;;;;;;43.05;13.70;;;;;;;23.78;47.03;100835.88;5020897;28;20127;-89
2022/08/30 05:30:19;;;;;;;41.08;12.70;;;;;;;23.99;46.83;100815.16;5034982;28;20040;-87
2022/08/30 05:32:47;;;;;;;46.45;12.30;;;;;;;24.32;46.53;100830.03;5034294;28;20108;-87
2022/08/30 05:35:13;;;;;;;45.88;15.60;;;;;;;24.68;45.94;100838.06;5049711;28;20083;-89
2022/08/30 05:37:38;;;;;;;45.03;11.10;;;;;;;24.99;44.44;100851.22;5033692;28;20037;-88
2022/08/30 05:40:05;;;;;;;43.38;10.45;;;;;;;25.07;43.68;100825.19;5007980;28;20041;-89
2022/08/30 05:42:34;;;;;;;40.30;10.73;;;;;;;25.43;43.34;100837.53;4993961;28;20064;-89
2022/08/30 05:45:00;;;;;;;43.08;10.63;;;;;;;25.64;43.04;100824.03;5029541;28;20040;-88
2022/08/30 05:47:27;;;;;;;46.63;11.30;;;;;;;25.98;43.04;100830.22;5014345;28;20136;-89
2022/08/30 05:49:53;;;;;;;34.05;11.45;;;;;;;26.17;43.05;100847.22;5037167;28;20055;-90
2022/08/30 05:52:22;;;;;;;58.65;14.98;;;;;;;26.28;42.87;100839.88;5048500;28;20131;-90
2022/08/30 05:54:53;;;;;;;50.70;13.93;;;;;;;26.39;43.01;100835.31;5037128;28;20526;-89
2022/08/30 05:57:20;;;;;;;47.72;14.02;;;;;;;26.51;43.17;100844.22;5012189;28;20041;-89
2022/08/30 05:59:46;;;;;;;46.08;13.57;;;;;;;26.82;42.84;100844.50;5031763;28;20045;-88
2022/08/30 06:02:17;;;;;;;43.60;14.30;;;;;;;26.91;42.66;100849.25;5016553;28;20083;-90
2022/08/30 06:04:42;;;;;;;56.58;15.05;;;;;;;27.19;42.69;100844.47;5043760;28;20048;-86
2022/08/30 06:07:11;;;;;;;61.58;15.25;;;;;;;27.38;42.16;100827.47;5036247;28;20069;-89
2022/08/30 06:09:40;;;;;;;54.53;16.08;;;;;;;27.61;41.68;100835.28;5011994;28;20077;-88
2022/08/30 06:12:05;;;;;;;61.20;16.10;;;;;;;27.87;41.30;100816.06;5034113;28;20044;-89
2022/08/30 06:14:31;;;;;;;67.00;16.33;;;;;;;28.02;41.63;100812.50;5022159;28;20069;-90
2022/08/30 06:16:57;;;;;;;57.63;15.57;;;;;;;28.04;41.74;100815.81;5018501;28;20056;-91
2022/08/30 06:19:28;;;;;;;44.83;15.35;;;;;;;28.21;41.21;100821.91;5041186;28;20067;-91
2022/08/30 06:21:56;;;;;;;47.55;14.70;;;;;;;28.46;40.99;100812.00;5016283;28;20116;-92
2022/08/30 06:24:23;;;;;;;54.08;14.23;;;;;;;28.41;40.65;100808.09;5035062;28;20037;-91
2022/08/30 06:26:48;;;;;;;41.20;12.95;;;;;;;28.93;39.27;100827.44;5053602;28;20043;-92
2022/08/30 06:29:17;;;;;;;48.60;12.60;;;;;;;29.10;39.13;100833.53;5048607;28;20045;-89
2022/08/30 06:31:43;;;;;;;55.20;13.80;;;;;;;29.30;39.43;100821.56;5056064;28;20048;-93
2022/08/30 06:34:20;;;;;;;58.70;13.32;;;;;;;29.35;39.65;100812.41;5055226;28;20024;-87
2022/08/30 06:36:45;;;;;;;41.58;12.40;;;;;;;29.64;39.33;100827.25;5065484;28;20056;-92
2022/08/30 06:39:16;;;;;;;62.88;13.30;;;;;;;29.85;39.06;100821.59;5055297;28;20076;-95
2022/08/30 06:41:42;;;;;;;57.67;13.48;;;;;;;29.94;38.33;100825.44;5033873;28;20045;-88
2022/08/30 06:44:08;;;;;;;52.83;12.20;;;;;;;30.08;38.20;100826.44;5032223;28;20051;-86
2022/08/30 06:46:35;;;;;;;38.05;10.73;;;;;;;30.40;38.24;100833.47;5049598;28;20421;-90
2022/08/30 06:49:01;;;;;;;52.83;12.07;;;;;;;30.65;37.79;100839.91;5012882;28;20497;-87
2022/08/30 06:51:28;;;;;;;46.40;11.45;;;;;;;30.88;37.88;100855.81;5031488;28;20071;-87
2022/08/30 06:53:54;;;;;;;38.92;10.90;;;;;;;31.04;37.77;100852.88;5008014;28;20034;-87
2022/08/30 06:56:21;;;;;;;46.95;12.43;;;;;;;31.16;37.82;100850.50;5005499;28;20045;-89
2022/08/30 06:58:49;;;;;;;47.60;12.02;;;;;;;31.44;37.45;100843.28;5021177;28;20107;-88
2022/08/30 07:01:31;;;;;;;45.17;11.90;;;;;;;31.52;38.44;100834.28;5028260;28;20061;-89
2022/08/30 07:03:59;;;;;;;46.15;10.07;;;;;;;31.76;38.80;100842.56;5018401;28;20040;-90
2022/08/30 07:06:25;;;;;;;37.33;10.80;;;;;;;31.99;38.28;100853.16;4997790;28;20641;-89
2022/08/30 07:08:53;;;;;;;39.42;9.30;;;;;;;32.11;38.26;100837.66;4993698;28;20124;-87
2022/08/30 07:11:32;;;;;;;38.17;10.95;;;;;;;32.40;37.70;100845.00;5023401;28;20440;-90
2022/08/30 07:13:58;;;;;;;26.30;9.55;;;;;;;32.25;38.92;100834.13;5028059;28;20127;-89
2022/08/30 07:16:30;;;;;;;38.20;8.18;;;;;;;32.51;39.42;100852.06;5029343;28;20151;-87
2022/08/30 07:18:57;;;;;;;33.45;8.73;;;;;;;32.91;38.21;100860.84;5044953;28;20036;-87
2022/08/30 07:22:06;;;;;;;36.15;8.73;;;;;;;33.10;38.14;100846.03;5032504;28;20044;-87
2022/08/30 07:24:32;;;;;;;36.97;8.68;;;;;;;33.41;37.95;100847.09;5024982;28;20445;-87
2022/08/30 07:27:07;;;;;;;39.63;8.30;;;;;;;33.48;38.33;100845.84;5022893;28;20469;-91
2022/08/30 07:29:34;;;;;;;23.48;6.45;;;;;;;33.51;39.02;100834.09;4996341;28;20076;-92
2022/08/30 07:32:04;;;;;;;40.17;7.50;;;;;;;33.59;38.63;100844.53;5027950;28;20048;-88
2022/08/30 07:34:37;;;;;;;33.53;6.93;;;;;;;34.04;37.15;100859.41;5046482;28;20151;-88
2022/08/30 07:37:03;;;;;;;26.60;6.68;;;;;;;34.15;37.29;100837.69;5030671;28;20128;-86
2022/08/30 07:39:29;;;;;;;41.58;6.85;;;;;;;34.28;37.10;100840.75;5047919;28;20072;-87
2022/08/30 07:41:56;;;;;;;25.48;6.30;;;;;;;34.76;36.42;100854.06;5048315;28;20041;-90
2022/08/30 07:44:32;;;;;;;43.20;8.07;;;;;;;34.83;35.30;100824.53;5020222;28;20049;-91
2022/08/30 07:47:03;;;;;;;99.00;12.63;;;;;;;35.04;35.11;100847.16;5029839;28;20612;-86
2022/08/30 07:49:28;;;;;;;37.17;7.35;;;;;;;35.01;35.33;100839.44;5034400;28;20052;-88
2022/08/30 07:51:58;;;;;;;32.55;7.57;;;;;;;35.45;34.36;100851.63;5031733;28;20041;-87
2022/08/30 07:54:26;;;;;;;39.50;7.53;;;;;;;35.63;34.32;100840.50;5022251;28;20049;-88
2022/08/30 07:56:56;;;;;;;31.50;7.47;;;;;;;35.77;33.76;100824.41;5018332;28;20049;-87
2022/08/30 07:59:24;;;;;;;33.80;7.63;;;;;;;36.51;32.31;100831.00;5033024;28;20041;-87
2022/08/30 08:01:51;;;;;;;32.40;7.07;;;;;;;36.99;32.01;100835.47;5029084;28;20045;-87
2022/08/30 08:04:18;;;;;;;33.97;7.10;;;;;;;37.41;31.54;100830.03;5039578;28;20041;-87
2022/08/30 08:06:45;;;;;;;34.17;6.80;;;;;;;37.59;31.60;100830.78;5010193;28;20520;-86
2022/08/30 08:09:10;;;;;;;38.58;6.70;;;;;;;37.63;31.78;100833.72;5032630;28;20083;-88
2022/08/30 08:11:36;;;;;;;40.22;6.35;;;;;;;36.08;34.11;100834.63;5035138;28;20052;-88
2022/08/30 08:14:02;;;;;;;34.10;5.85;;;;;;;36.55;34.40;100831.97;5025941;28;20124;-89
2022/08/30 08:16:32;;;;;;;31.73;5.82;;;;;;;35.70;36.00;100846.44;5015664;28;20094;-90
2022/08/30 08:18:59;;;;;;;22.05;5.22;;;;;;;35.95;35.43;100830.03;5032974;28;20099;-90
2022/08/30 08:21:26;;;;;;;19.40;4.55;;;;;;;36.75;33.99;100822.88;5035434;28;20045;-88
2022/08/30 08:23:53;;;;;;;24.27;5.28;;;;;;;37.06;32.48;100821.81;5019639;28;20041;-88
2022/08/30 08:26:21;;;;;;;30.92;5.13;;;;;;;37.13;32.51;100827.69;5020250;28;20053;-88
2022/08/30 08:28:48;;;;;;;22.77;5.13;;;;;;;38.12;30.89;100826.47;5021325;28;20036;-88
2022/08/30 08:31:22;;;;;;;29.60;4.50;;;;;;;38.08;30.23;100824.69;5016787;28;20128;-89
2022/08/30 08:33:50;;;;;;;27.75;5.57;;;;;;;39.37;27.44;100830.06;5038916;28;20052;-87
2022/08/30 08:36:19;;;;;;;21.50;5.03;;;;;;;40.20;26.65;100821.31;5057951;28;20063;-87
2022/08/30 08:38:45;;;;;;;28.60;5.15;;;;;;;41.47;24.09;100821.47;5029891;28;20127;-89
2022/08/30 08:41:40;;;;;;;26.58;5.07;;;;;;;41.82;23.58;100814.97;5050543;28;20044;-88
2022/08/30 08:44:08;;;;;;;22.10;4.00;;;;;;;41.54;23.34;100821.66;5019465;28;20041;-87
2022/08/30 08:47:02;;;;;;;27.67;5.00;;;;;;;42.07;22.99;100816.34;5034094;28;20044;-88
2022/08/30 08:49:29;;;;;;;23.88;5.03;;;;;;;42.42;22.91;100806.97;5015075;28;20505;-89
2022/08/30 08:54:55;;;;;;;31.00;4.60;;;;;;;42.31;23.12;100803.09;5046455;28;20048;-87
2022/08/30 08:57:23;;;;;;;22.00;4.63;;;;;;;42.43;22.80;100805.81;5033020;28;20053;-89
2022/08/30 08:59:52;;;;;;;30.15;4.65;;;;;;;42.63;22.42;100798.06;5015691;28;20041;-88
2022/08/30 09:03:00;;;;;;;23.17;4.95;;;;;;;43.34;22.85;100806.97;5014834;28;20049;-88
2022/08/30 09:05:30;;;;;;;22.15;4.75;;;;;;;43.26;22.79;100793.09;5022422;28;20041;-87
2022/08/30 09:08:07;;;;;;;32.92;5.03;;;;;;;44.31;21.82;100796.13;5015606;28;20056;-88
2022/08/30 09:10:32;;;;;;;27.13;4.72;;;;;;;43.63;22.57;100804.56;5021689;28;20056;-89
2022/08/30 09:12:58;;;;;;;27.23;4.78;;;;;;;43.84;22.71;100787.88;5018642;28;20433;-88
2022/08/30 09:15:27;;;;;;;29.58;4.85;;;;;;;43.79;23.01;100805.19;5052373;28;20039;-87
2022/08/30 09:17:58;;;;;;;29.08;4.82;;;;;;;44.51;21.08;100800.38;5050739;28;20067;-87
2022/08/30 09:20:35;;;;;;;20.85;4.88;;;;;;;43.90;20.72;100796.81;5051315;28;20036;-85
2022/08/30 09:23:19;;;;;;;35.83;5.00;;;;;;;42.97;21.04;100799.09;5014135;28;20527;-86
2022/08/30 09:25:53;;;;;;;33.72;5.00;;;;;;;41.18;24.27;100792.56;5050326;28;20029;-87
2022/08/30 09:28:50;;;;;;;23.15;4.90;;;;;;;41.52;23.34;100801.41;5031433;28;20049;-87
2022/08/30 09:31:23;;;;;;;20.48;4.10;;;;;;;41.17;24.55;100785.28;5022715;28;20075;-89
2022/08/30 09:34:14;;;;;;;18.98;4.50;;;;;;;42.00;24.31;100793.63;5050927;28;20044;-88
2022/08/30 09:36:42;;;;;;;22.38;4.25;;;;;;;41.26;23.89;100783.09;5015030;28;20048;-88
2022/08/30 09:39:14;;;;;;;29.38;4.80;;;;;;;42.10;23.69;100795.84;5009895;28;20040;-87
2022/08/30 09:41:47;;;;;;;21.13;4.45;;;;;;;43.60;21.75;100791.16;5051076;28;20037;-87
2022/08/30 09:44:29;;;;;;;30.33;4.50;;;;;;;42.79;22.48;100789.47;5035643;28;20132;-87
2022/08/30 09:47:01;;;;;;;31.00;4.55;;;;;;;43.57;21.74;100772.09;5050289;28;20497;-87
2022/08/30 09:49:52;;;;;;;27.05;4.70;;;;;;;44.77;20.62;100782.41;5018350;28;20068;-86
2022/08/30 09:52:55;;;;;;;30.45;4.63;;;;;;;45.53;19.80;100788.66;5051704;28;20041;-84
2022/08/30 09:55:25;;;;;;;22.98;4.70;;;;;;;45.27;20.01;100796.19;5055478;28;20037;-89
2022/08/30 09:58:06;;;;;;;26.27;5.32;;;;;;;47.03;18.38;100793.94;5037336;28;20052;-84
2022/08/30 10:00:46;;;;;;;22.90;5.05;;;;;;;46.81;19.07;100793.13;5023636;28;20059;-86
2022/08/30 10:03:41;;;;;;;31.23;5.28;;;;;;;44.92;22.17;100785.41;5034527;28;20045;-84
2022/08/30 10:06:37;;;;;;;23.13;5.20;;;;;;;45.12;22.54;100788.75;5028614;28;20068;-84
2022/08/30 10:09:27;;;;;;;26.88;5.22;;;;;;;44.29;24.11;100787.19;5048384;28;20037;-84
2022/08/30 10:12:02;;;;;;;28.65;5.05;;;;;;;46.10;22.42;100788.91;5047965;28;20094;-85
2022/08/30 10:14:44;;;;;;;25.08;4.47;;;;;;;45.39;22.54;100792.22;5047514;28;20103;-84
2022/08/30 10:17:54;;;;;;;26.50;4.80;;;;;;;42.86;25.48;100797.28;5047992;28;20040;-87
2022/08/30 10:20:26;;;;;;;33.20;4.70;;;;;;;43.34;25.44;100786.34;4982075;28;20046;-86
2022/08/30 10:23:01;;;;;;;24.20;5.10;;;;;;;44.73;23.48;100794.94;5031414;28;20394;-86
2022/08/30 10:25:44;;;;;;;28.52;4.97;;;;;;;44.41;23.61;100775.59;5050102;28;20041;-86
2022/08/30 10:28:28;;;;;;;25.17;5.03;;;;;;;44.28;24.34;100785.53;5035262;28;20040;-82
2022/08/30 10:31:03;;;;;;;20.83;5.05;;;;;;;41.68;27.83;100771.16;5044156;28;20386;-85
2022/08/30 10:34:05;;;;;;;24.40;5.20;;;;;;;39.65;29.76;100790.75;5016700;28;20033;-83
2022/08/30 10:36:35;;;;;;;29.33;4.85;;;;;;;39.64;30.52;100789.13;5063019;28;20041;-83
2022/08/30 10:39:00;;;;;;;24.77;4.95;;;;;;;39.96;29.81;100783.63;5029084;28;20045;-84
2022/08/30 10:41:39;;;;;;;25.75;4.78;;;;;;;39.33;31.12;100780.47;5037498;28;20044;-85
2022/08/30 10:44:28;;;;;;;29.48;5.28;;;;;;;39.30;31.34;100784.00;5051356;28;20041;-85
2022/08/30 10:47:35;;;;;;;23.65;4.28;;;;;;;38.29;32.35;100771.31;5033637;28;20087;-87
2022/08/30 10:50:14;;;;;;;25.83;5.38;;;;;;;40.29;29.55;100782.56;5030240;28;20045;-85
2022/08/30 10:53:00;;;;;;;27.13;5.30;;;;;;;39.22;31.32;100782.91;5013657;28;20668;-87
2022/08/30 10:55:43;;;;;;;25.75;5.13;;;;;;;39.33;31.62;100781.28;5028031;28;20049;-82
2022/08/30 10:58:09;;;;;;;;;;;;;;;40.79;29.25;100781.13;5017854;28;20052;-84
2022/08/30 11:00:44;;;;;;;28.08;5.63;;;;;;;41.73;27.74;100773.69;5053190;28;20004;-83
2022/08/30 11:03:48;;;;;;;27.85;5.03;;;;;;;41.58;28.00;100774.56;5025200;28;20071;-83
2022/08/30 11:06:34;;;;;;;25.63;4.85;;;;;;;40.66;28.93;100755.00;5040501;28;20037;-83
2022/08/30 11:09:23;;;;;;;29.58;5.25;;;;;;;39.08;31.21;100748.72;5031638;28;20036;-83
2022/08/30 11:12:39;;;;;;;17.58;4.43;;;;;;;38.90;30.93;100762.19;5051082;28;20068;-84
2022/08/30 11:15:22;;;;;;;30.92;4.43;;;;;;;39.26;30.77;100750.94;4977013;28;20590;-84
2022/08/30 11:18:02;;;;;;;21.23;4.32;;;;;;;38.31;31.93;100744.53;5026503;28;20041;-85
2022/08/30 11:20:40;;;;;;;22.52;4.60;;;;;;;37.16;33.02;100751.38;5024265;28;20097;-83
2022/08/30 11:23:28;;;;;;;14.77;4.40;;;;;;;36.79;33.48;100741.00;5040814;28;20084;-84
2022/08/30 11:26:01;;;;;;;16.20;4.00;;;;;;;36.69;34.23;100747.78;5016698;28;20045;-84
2022/08/30 11:28:36;;;;;;;15.98;4.18;;;;;;;36.62;34.72;100745.53;5025004;28;20044;-84
2022/08/30 11:31:19;;;;;;;20.95;4.60;;;;;;;34.34;38.77;100733.44;5035719;28;20116;-84
2022/08/30 11:34:07;;;;;;;20.65;5.05;;;;;;;35.02;38.11;100732.13;5044273;28;20046;-83
2022/08/30 11:36:37;;;;;;;13.50;4.32;;;;;;;34.47;38.77;100726.97;5041131;28;20507;-83
2022/08/30 11:39:12;;;;;;;14.65;4.35;;;;;;;34.13;39.86;100727.56;5048094;28;20044;-86